sensor_id;sensor_type;location;lat;lon;timestamp;temperature;humidity
20315;DHT22;10315;50.958;13.080;2023-12-29T00:01:19;6.10;99.90
20315;DHT22;10315;50.958;13.080;2023-12-29T00:11:22;6.20;99.90
20315;DHT22;10315;50.958;13.080;2023-12-29T00:21:24;6.30;99.90
20315;DHT22;10315;50.958;13.080;2023-12-29T00:31:26;6.40;99.90
20315;DHT22;10315;50.958;13.080;2023-12-29T00:41:28;6.50;99.90
20315;DHT22;10315;50.958;13.080;2023-12-29T00:51:31;6.40;99.90
20315;DHT22;10315;50.958;13.080;2023-12-29T01:01:34;6.50;99.90
20315;DHT22;10315;50.958;13.080;2023-12-29T01:11:37;6.70;99.90
20315;DHT22;10315;50.958;13.080;2023-12-29T01:21:39;6.70;99.90
20315;DHT22;10315;50.958;13.080;2023-12-29T01:31:42;6.90;99.90
20315;DHT22;10315;50.958;13.080;2023-12-29T01:41:43;7.00;99.90
20315;DHT22;10315;50.958;13.080;2023-12-29T01:51:48;7.10;99.90
20315;DHT22;10315;50.958;13.080;2023-12-29T02:01:50;6.80;99.90
20315;DHT22;10315;50.958;13.080;2023-12-29T02:11:53;6.70;99.90
20315;DHT22;10315;50.958;13.080;2023-12-29T02:21:54;6.80;99.90
20315;DHT22;10315;50.958;13.080;2023-12-29T02:31:59;6.80;99.90
20315;DHT22;10315;50.958;13.080;2023-12-29T02:42:01;6.80;99.90
20315;DHT22;10315;50.958;13.080;2023-12-29T02:52:04;6.90;99.90
20315;DHT22;10315;50.958;13.080;2023-12-29T03:02:06;7.10;99.90
20315;DHT22;10315;50.958;13.080;2023-12-29T03:12:09;7.00;99.90
20315;DHT22;10315;50.958;13.080;2023-12-29T03:22:11;7.10;99.90
20315;DHT22;10315;50.958;13.080;2023-12-29T03:32:13;7.20;99.90
20315;DHT22;10315;50.958;13.080;2023-12-29T03:42:16;7.10;99.90
20315;DHT22;10315;50.958;13.080;2023-12-29T03:52:18;7.00;99.90
20315;DHT22;10315;50.958;13.080;2023-12-29T04:02:20;7.30;99.90
20315;DHT22;10315;50.958;13.080;2023-12-29T04:12:23;7.50;99.90
20315;DHT22;10315;50.958;13.080;2023-12-29T04:22:24;7.40;99.90
20315;DHT22;10315;50.958;13.080;2023-12-29T04:32:27;7.50;99.90
20315;DHT22;10315;50.958;13.080;2023-12-29T04:42:29;7.70;99.90
20315;DHT22;10315;50.958;13.080;2023-12-29T04:52:32;7.60;99.90
20315;DHT22;10315;50.958;13.080;2023-12-29T05:02:33;7.80;99.90
20315;DHT22;10315;50.958;13.080;2023-12-29T05:12:36;7.70;99.90
20315;DHT22;10315;50.958;13.080;2023-12-29T05:22:38;7.70;99.90
20315;DHT22;10315;50.958;13.080;2023-12-29T05:32:41;7.60;99.90
20315;DHT22;10315;50.958;13.080;2023-12-29T05:42:42;7.40;99.90
20315;DHT22;10315;50.958;13.080;2023-12-29T05:52:45;7.50;99.90
20315;DHT22;10315;50.958;13.080;2023-12-29T06:02:50;7.50;99.90
20315;DHT22;10315;50.958;13.080;2023-12-29T06:12:53;7.40;99.90
20315;DHT22;10315;50.958;13.080;2023-12-29T06:22:55;7.50;99.90
20315;DHT22;10315;50.958;13.080;2023-12-29T06:32:58;7.30;99.90
20315;DHT22;10315;50.958;13.080;2023-12-29T06:42:59;7.30;99.90
20315;DHT22;10315;50.958;13.080;2023-12-29T06:53:04;7.40;99.90
20315;DHT22;10315;50.958;13.080;2023-12-29T07:03:05;7.40;99.90
20315;DHT22;10315;50.958;13.080;2023-12-29T07:13:08;7.30;99.90
20315;DHT22;10315;50.958;13.080;2023-12-29T07:23:10;7.40;99.90
20315;DHT22;10315;50.958;13.080;2023-12-29T07:33:13;7.30;99.90
20315;DHT22;10315;50.958;13.080;2023-12-29T07:43:15;7.40;99.90
20315;DHT22;10315;50.958;13.080;2023-12-29T07:53:18;7.60;99.90
20315;DHT22;10315;50.958;13.080;2023-12-29T08:03:19;7.70;99.90
20315;DHT22;10315;50.958;13.080;2023-12-29T08:13:22;7.90;99.90
20315;DHT22;10315;50.958;13.080;2023-12-29T08:23:24;8.00;99.90
20315;DHT22;10315;50.958;13.080;2023-12-29T08:33:28;8.30;99.90
20315;DHT22;10315;50.958;13.080;2023-12-29T08:43:30;8.50;99.90
20315;DHT22;10315;50.958;13.080;2023-12-29T08:53:32;8.50;99.90
20315;DHT22;10315;50.958;13.080;2023-12-29T09:03:36;8.60;99.90
20315;DHT22;10315;50.958;13.080;2023-12-29T09:13:39;8.80;99.90
20315;DHT22;10315;50.958;13.080;2023-12-29T09:23:40;8.80;99.90
20315;DHT22;10315;50.958;13.080;2023-12-29T09:33:43;8.90;99.90
20315;DHT22;10315;50.958;13.080;2023-12-29T09:43:52;8.90;99.90
20315;DHT22;10315;50.958;13.080;2023-12-29T09:53:55;8.90;99.90
20315;DHT22;10315;50.958;13.080;2023-12-29T10:04:00;9.00;99.90
20315;DHT22;10315;50.958;13.080;2023-12-29T10:14:13;9.00;99.90
20315;DHT22;10315;50.958;13.080;2023-12-29T10:24:20;8.90;99.90
20315;DHT22;10315;50.958;13.080;2023-12-29T10:34:23;8.80;99.90
20315;DHT22;10315;50.958;13.080;2023-12-29T10:44:30;8.90;99.90
20315;DHT22;10315;50.958;13.080;2023-12-29T10:54:31;9.10;99.90
20315;DHT22;10315;50.958;13.080;2023-12-29T11:04:35;9.40;99.90
20315;DHT22;10315;50.958;13.080;2023-12-29T11:14:36;9.80;99.90
20315;DHT22;10315;50.958;13.080;2023-12-29T11:24:42;9.70;99.90
20315;DHT22;10315;50.958;13.080;2023-12-29T11:34:48;9.50;99.90
20315;DHT22;10315;50.958;13.080;2023-12-29T11:44:53;9.80;99.90
20315;DHT22;10315;50.958;13.080;2023-12-29T11:55:07;9.80;99.90
20315;DHT22;10315;50.958;13.080;2023-12-29T12:05:10;9.70;99.90
20315;DHT22;10315;50.958;13.080;2023-12-29T12:15:32;9.70;99.90
20315;DHT22;10315;50.958;13.080;2023-12-29T12:25:35;9.60;99.90
20315;DHT22;10315;50.958;13.080;2023-12-29T12:35:39;9.70;99.90
20315;DHT22;10315;50.958;13.080;2023-12-29T12:45:46;9.60;99.90
20315;DHT22;10315;50.958;13.080;2023-12-29T12:55:49;9.50;99.90
20315;DHT22;10315;50.958;13.080;2023-12-29T13:05:53;9.50;99.90
20315;DHT22;10315;50.958;13.080;2023-12-29T13:15:55;9.50;99.90
20315;DHT22;10315;50.958;13.080;2023-12-29T13:26:01;9.60;99.90
20315;DHT22;10315;50.958;13.080;2023-12-29T13:36:09;9.60;99.90
20315;DHT22;10315;50.958;13.080;2023-12-29T13:46:16;9.70;99.90
20315;DHT22;10315;50.958;13.080;2023-12-29T13:56:19;9.60;99.90
20315;DHT22;10315;50.958;13.080;2023-12-29T14:06:27;9.70;99.90
20315;DHT22;10315;50.958;13.080;2023-12-29T14:16:30;9.70;99.90
20315;DHT22;10315;50.958;13.080;2023-12-29T14:26:33;9.60;99.90
20315;DHT22;10315;50.958;13.080;2023-12-29T14:36:36;9.50;99.90
20315;DHT22;10315;50.958;13.080;2023-12-29T14:46:39;9.60;99.90
20315;DHT22;10315;50.958;13.080;2023-12-29T14:56:41;9.60;99.90
20315;DHT22;10315;50.958;13.080;2023-12-29T15:06:44;9.60;99.90
20315;DHT22;10315;50.958;13.080;2023-12-29T15:16:46;9.60;99.90
20315;DHT22;10315;50.958;13.080;2023-12-29T15:26:49;9.50;99.90
20315;DHT22;10315;50.958;13.080;2023-12-29T15:36:50;9.60;99.90
20315;DHT22;10315;50.958;13.080;2023-12-29T15:46:53;9.50;99.90
20315;DHT22;10315;50.958;13.080;2023-12-29T15:56:58;9.50;99.90
20315;DHT22;10315;50.958;13.080;2023-12-29T16:07:01;9.50;99.90
20315;DHT22;10315;50.958;13.080;2023-12-29T16:17:03;9.50;99.90
20315;DHT22;10315;50.958;13.080;2023-12-29T16:27:06;9.30;99.90
20315;DHT22;10315;50.958;13.080;2023-12-29T16:37:07;9.20;99.90
20315;DHT22;10315;50.958;13.080;2023-12-29T16:47:11;9.20;99.90
20315;DHT22;10315;50.958;13.080;2023-12-29T16:57:12;9.30;99.90
20315;DHT22;10315;50.958;13.080;2023-12-29T17:07:15;9.30;99.90
20315;DHT22;10315;50.958;13.080;2023-12-29T17:17:17;9.30;99.90
20315;DHT22;10315;50.958;13.080;2023-12-29T17:27:19;9.30;99.90
20315;DHT22;10315;50.958;13.080;2023-12-29T17:37:21;9.30;99.90
20315;DHT22;10315;50.958;13.080;2023-12-29T17:47:25;9.40;99.90
20315;DHT22;10315;50.958;13.080;2023-12-29T17:57:28;9.30;99.90
20315;DHT22;10315;50.958;13.080;2023-12-29T18:07:32;9.30;99.90
20315;DHT22;10315;50.958;13.080;2023-12-29T18:17:33;9.20;99.90
20315;DHT22;10315;50.958;13.080;2023-12-29T18:27:38;9.30;99.90
20315;DHT22;10315;50.958;13.080;2023-12-29T18:37:40;9.30;99.90
20315;DHT22;10315;50.958;13.080;2023-12-29T18:47:43;9.20;99.90
20315;DHT22;10315;50.958;13.080;2023-12-29T18:57:44;9.10;99.90
20315;DHT22;10315;50.958;13.080;2023-12-29T19:07:47;9.10;99.90
20315;DHT22;10315;50.958;13.080;2023-12-29T19:17:49;9.00;99.90
20315;DHT22;10315;50.958;13.080;2023-12-29T19:27:51;9.10;99.90
20315;DHT22;10315;50.958;13.080;2023-12-29T19:37:54;9.20;99.90
20315;DHT22;10315;50.958;13.080;2023-12-29T19:47:58;9.10;99.90
20315;DHT22;10315;50.958;13.080;2023-12-29T19:58:00;9.20;99.90
20315;DHT22;10315;50.958;13.080;2023-12-29T20:08:05;9.30;99.90
20315;DHT22;10315;50.958;13.080;2023-12-29T20:18:07;9.30;99.90
20315;DHT22;10315;50.958;13.080;2023-12-29T20:28:12;9.40;99.90
20315;DHT22;10315;50.958;13.080;2023-12-29T20:38:14;9.40;99.90
20315;DHT22;10315;50.958;13.080;2023-12-29T20:48:16;9.30;99.90
20315;DHT22;10315;50.958;13.080;2023-12-29T20:58:18;9.40;99.90
20315;DHT22;10315;50.958;13.080;2023-12-29T21:08:21;9.40;99.90
20315;DHT22;10315;50.958;13.080;2023-12-29T21:18:22;9.30;99.90
20315;DHT22;10315;50.958;13.080;2023-12-29T21:28:25;9.30;99.90
20315;DHT22;10315;50.958;13.080;2023-12-29T21:38:28;9.20;99.90
20315;DHT22;10315;50.958;13.080;2023-12-29T21:48:30;9.20;99.90
20315;DHT22;10315;50.958;13.080;2023-12-29T21:58:34;9.20;99.90
20315;DHT22;10315;50.958;13.080;2023-12-29T22:08:39;9.20;99.90
20315;DHT22;10315;50.958;13.080;2023-12-29T22:18:41;9.20;99.90
20315;DHT22;10315;50.958;13.080;2023-12-29T22:28:46;9.20;99.90
20315;DHT22;10315;50.958;13.080;2023-12-29T22:38:48;9.00;99.90
20315;DHT22;10315;50.958;13.080;2023-12-29T22:48:51;9.10;99.90
20315;DHT22;10315;50.958;13.080;2023-12-29T22:58:54;9.10;99.90
20315;DHT22;10315;50.958;13.080;2023-12-29T23:08:57;9.20;99.90
20315;DHT22;10315;50.958;13.080;2023-12-29T23:18:58;9.20;99.90
20315;DHT22;10315;50.958;13.080;2023-12-29T23:29:01;9.10;99.90
20315;DHT22;10315;50.958;13.080;2023-12-29T23:39:03;9.00;99.90
20315;DHT22;10315;50.958;13.080;2023-12-29T23:49:06;8.70;99.90
20315;DHT22;10315;50.958;13.080;2023-12-29T23:59:07;8.50;99.90
